Time;durP1;ratioP1;P1;durP2;ratioP2;P2;SDS_P1;SDS_P2;PMS_P1;PMS_P2;Temp;Humidity;BMP_temperature;BMP_pressure;BME280_temperature;BME280_humidity;BME280_pressure;Samples;Min_cycle;Max_cycle;Signal;HPM_P1;HPM_P2
2023/07/06 00:00:23;;;;;;;13.02;1.98;;;13.90;99.90;;;;;;5020029;28;20170;-70
2023/07/06 00:02:49;;;;;;;7.63;2.08;;;14.90;99.90;;;;;;5020412;28;20592;-69
2023/07/06 00:05:15;;;;;;;10.95;2.03;;;;;;;;;;5026809;28;20544;-70
2023/07/06 00:07:41;;;;;;;6.60;1.50;;;;;;;;;;5028842;28;20680;-69
2023/07/06 00:10:07;;;;;;;6.60;1.70;;;;;;;;;;5029271;28;20205;-75
2023/07/06 00:12:34;;;;;;;4.47;1.30;;;15.00;99.90;;;;;;5030792;28;20209;-77
2023/07/06 00:15:00;;;;;;;5.55;1.25;;;;;;;;;;5036803;28;20223;-82
2023/07/06 00:17:26;;;;;;;10.68;2.05;;;;;;;;;;5043679;28;20212;-83
2023/07/06 00:19:52;;;;;;;8.70;1.65;;;;;;;;;;5044633;28;20201;-82
2023/07/06 00:22:18;;;;;;;7.57;1.55;;;14.90;99.90;;;;;;5039593;28;20648;-83
2023/07/06 00:24:48;;;;;;;4.82;1.30;;;;;;;;;;5041241;28;20189;-85
2023/07/06 00:27:15;;;;;;;5.03;1.13;;;;;;;;;;5036886;28;20174;-83
2023/07/06 00:29:56;;;;;;;8.77;1.55;;;14.80;99.90;;;;;;5036539;28;20212;-82
2023/07/06 00:32:31;;;;;;;6.60;1.20;;;14.90;99.90;;;;;;5032522;28;20201;-82
2023/07/06 00:34:59;;;;;;;7.72;1.50;;;15.00;99.90;;;;;;5033627;28;20173;-84
2023/07/06 00:37:26;;;;;;;9.23;1.40;;;15.00;99.90;;;;;;5028061;28;20182;-84
2023/07/06 00:39:52;;;;;;;7.50;1.50;;;14.80;99.90;;;;;;5031485;28;20178;-85
2023/07/06 00:42:20;;;;;;;9.27;1.75;;;14.70;99.90;;;;;;5030852;28;20192;-83
2023/07/06 00:44:57;;;;;;;6.55;1.25;;;14.90;99.90;;;;;;5030172;28;20170;-82
2023/07/06 00:47:46;;;;;;;7.63;1.10;;;15.10;99.90;;;;;;5030471;28;20637;-83
2023/07/06 00:50:16;;;;;;;6.90;1.20;;;14.80;99.90;;;;;;5028579;28;20684;-84
2023/07/06 00:52:51;;;;;;;6.05;1.50;;;14.70;99.90;;;;;;5030720;28;20166;-83
2023/07/06 00:55:25;;;;;;;9.32;1.38;;;14.60;99.90;;;;;;5028789;28;20185;-83
2023/07/06 00:57:55;;;;;;;8.27;1.33;;;14.80;99.90;;;;;;5028380;28;20166;-84
2023/07/06 01:00:21;;;;;;;5.90;1.58;;;;;;;;;;5029207;28;20178;-83
2023/07/06 01:02:53;;;;;;;5.63;1.40;;;14.70;99.90;;;;;;5030286;28;20173;-84
2023/07/06 01:05:20;;;;;;;7.63;1.50;;;;;;;;;;5028924;28;20603;-82
2023/07/06 01:07:48;;;;;;;5.90;1.40;;;14.70;99.90;;;;;;5030582;28;20178;-82
2023/07/06 01:10:14;;;;;;;5.53;1.30;;;14.60;99.90;;;;;;5030620;28;20217;-80
2023/07/06 01:12:40;;;;;;;9.88;1.23;;;14.60;99.90;;;;;;5029892;28;20214;-80
2023/07/06 01:15:06;;;;;;;9.65;1.50;;;14.70;99.90;;;;;;5030480;28;20644;-79
2023/07/06 01:17:45;;;;;;;4.88;1.25;;;;;;;;;;5029956;28;20170;-80
2023/07/06 01:20:28;;;;;;;7.25;1.80;;;15.00;99.90;;;;;;5028180;28;20182;-79
2023/07/06 01:23:28;;;;;;;10.73;2.00;;;14.90;99.90;;;;;;5031458;28;20174;-80
2023/07/06 01:26:13;;;;;;;5.82;1.60;;;14.60;99.90;;;;;;5031513;28;20529;-80
2023/07/06 01:29:30;;;;;;;6.25;1.60;;;14.80;99.90;;;;;;5032185;28;20221;-80
2023/07/06 01:32:01;;;;;;;4.30;1.40;;;14.60;99.90;;;;;;4991575;28;20180;-79
2023/07/06 01:34:53;;;;;;;8.43;1.75;;;14.70;99.90;;;;;;5032965;28;20193;-80
2023/07/06 01:37:29;;;;;;;10.52;1.58;;;14.70;99.90;;;;;;5032359;28;20194;-79
2023/07/06 01:39:59;;;;;;;8.57;1.73;;;15.00;99.90;;;;;;5033965;28;20178;-79
2023/07/06 01:42:31;;;;;;;6.40;1.55;;;14.70;99.90;;;;;;5033398;28;20190;-76
2023/07/06 01:45:20;;;;;;;4.70;1.77;;;14.70;99.90;;;;;;5033411;28;20254;-75
2023/07/06 01:47:50;;;;;;;5.25;1.60;;;14.70;99.90;;;;;;5033518;28;20188;-75
2023/07/06 01:50:20;;;;;;;10.48;1.50;;;14.70;99.90;;;;;;5033204;28;20201;-75
2023/07/06 01:53:04;;;;;;;6.88;1.83;;;14.80;99.90;;;;;;5033224;28;20174;-75
2023/07/06 01:55:43;;;;;;;14.82;1.75;;;14.80;99.90;;;;;;5033380;28;20178;-75
2023/07/06 01:58:33;;;;;;;6.10;1.58;;;14.70;99.90;;;;;;5033343;28;20169;-75
2023/07/06 02:01:06;;;;;;;8.43;1.92;;;14.60;99.90;;;;;;5032832;28;20177;-75
2023/07/06 02:03:33;;;;;;;7.80;2.05;;;14.70;99.90;;;;;;5033075;28;20645;-74
2023/07/06 02:05:59;;;;;;;12.70;2.00;;;14.70;99.90;;;;;;5032859;28;20173;-79
2023/07/06 02:08:26;;;;;;;7.63;1.90;;;14.80;99.90;;;;;;5033046;28;20182;-77
2023/07/06 02:10:52;;;;;;;11.70;1.90;;;14.90;99.90;;;;;;5033053;28;20185;-76
2023/07/06 02:13:18;;;;;;;7.80;1.42;;;;;;;;;;5032498;28;20170;-77
2023/07/06 02:15:44;;;;;;;10.45;1.90;;;14.70;99.90;;;;;;5032760;28;20574;-75
2023/07/06 02:18:10;;;;;;;10.23;1.63;;;14.80;99.90;;;;;;5032968;28;20700;-75
2023/07/06 02:20:35;;;;;;;11.88;2.15;;;14.80;99.90;;;;;;5032654;28;20641;-74
2023/07/06 02:23:01;;;;;;;11.23;2.00;;;14.70;99.90;;;;;;5032758;28;20196;-75
2023/07/06 02:25:26;;;;;;;8.93;1.80;;;14.90;99.90;;;;;;5032945;28;20174;-74
2023/07/06 02:27:52;;;;;;;5.97;1.65;;;14.60;99.90;;;;;;5032612;28;20185;-75
2023/07/06 02:30:18;;;;;;;8.60;1.73;;;14.80;99.90;;;;;;5032490;28;20213;-74
2023/07/06 02:32:46;;;;;;;9.85;1.80;;;;;;;;;;5031632;28;20235;-80
2023/07/06 02:35:12;;;;;;;9.68;2.55;;;14.90;99.90;;;;;;5032718;28;20286;-79
2023/07/06 02:37:38;;;;;;;11.52;2.03;;;14.80;99.90;;;;;;5033190;28;20189;-81
2023/07/06 02:40:08;;;;;;;5.60;1.65;;;14.90;99.90;;;;;;5033396;28;20170;-80
2023/07/06 02:42:35;;;;;;;10.15;1.90;;;14.80;99.90;;;;;;5033766;28;20178;-82
2023/07/06 02:45:01;;;;;;;9.05;1.70;;;14.90;99.90;;;;;;5031209;28;20201;-84
2023/07/06 02:47:27;;;;;;;10.27;2.40;;;;;;;;;;5014088;28;20186;-81
2023/07/06 02:49:52;;;;;;;9.05;1.80;;;14.60;99.90;;;;;;5017379;28;20210;-82
2023/07/06 02:52:18;;;;;;;6.47;2.00;;;14.60;99.90;;;;;;5031760;28;20169;-81
2023/07/06 02:54:44;;;;;;;7.85;2.30;;;14.60;99.90;;;;;;5032607;28;20584;-81
2023/07/06 02:57:10;;;;;;;9.88;2.28;;;;;;;;;;5032543;28;20176;-81
2023/07/06 02:59:37;;;;;;;8.35;2.05;;;14.50;99.90;;;;;;5032338;28;20170;-82
2023/07/06 03:02:03;;;;;;;9.95;2.20;;;14.60;99.90;;;;;;5031784;28;20185;-82
2023/07/06 03:04:29;;;;;;;11.75;2.33;;;14.60;99.90;;;;;;5032512;28;20173;-82
2023/07/06 03:06:55;;;;;;;8.60;2.13;;;14.60;99.90;;;;;;5032557;28;20170;-82
2023/07/06 03:09:22;;;;;;;8.15;1.88;;;14.60;99.90;;;;;;5032076;28;20240;-84
2023/07/06 03:11:49;;;;;;;7.75;1.75;;;14.60;99.90;;;;;;5032871;28;20217;-84
2023/07/06 03:14:15;;;;;;;8.75;1.80;;;14.70;99.90;;;;;;5032051;28;20177;-84
2023/07/06 03:16:41;;;;;;;7.47;2.20;;;14.60;99.90;;;;;;5031838;28;20174;-77
2023/07/06 03:19:09;;;;;;;6.15;1.70;;;14.80;99.90;;;;;;5029893;28;20720;-76
2023/07/06 03:21:37;;;;;;;11.85;1.98;;;14.70;99.90;;;;;;5030060;28;20174;-76
2023/07/06 03:24:03;;;;;;;11.23;2.05;;;14.80;99.90;;;;;;5030332;28;20285;-77
2023/07/06 03:26:29;;;;;;;9.35;1.90;;;14.80;99.90;;;;;;5029686;28;20265;-78
2023/07/06 03:28:55;;;;;;;7.53;2.00;;;14.80;99.90;;;;;;5030914;28;20232;-77
2023/07/06 03:31:22;;;;;;;7.78;1.95;;;14.80;99.90;;;;;;5031047;28;20174;-77
2023/07/06 03:33:47;;;;;;;11.32;2.40;;;14.80;99.90;;;;;;5030878;28;20202;-77
2023/07/06 03:36:13;;;;;;;11.70;2.28;;;14.80;99.90;;;;;;5030873;28;20247;-77
2023/07/06 03:38:38;;;;;;;7.70;2.35;;;14.50;99.90;;;;;;5030400;28;20224;-78
2023/07/06 03:41:05;;;;;;;11.15;1.92;;;14.70;99.90;;;;;;5029154;28;20189;-82
2023/07/06 03:43:31;;;;;;;7.18;1.90;;;14.70;99.90;;;;;;5023709;28;20185;-82
2023/07/06 03:45:57;;;;;;;12.88;2.13;;;14.60;99.90;;;;;;5031245;28;20257;-83
2023/07/06 03:48:23;;;;;;;9.55;2.55;;;14.60;99.90;;;;;;5031081;28;20261;-83
2023/07/06 03:50:52;;;;;;;9.48;2.00;;;14.60;99.90;;;;;;5031615;28;20589;-81
2023/07/06 03:53:18;;;;;;;6.00;2.17;;;14.60;99.90;;;;;;5031013;28;20232;-82
2023/07/06 03:55:44;;;;;;;7.57;1.75;;;14.60;99.90;;;;;;5031268;28;20214;-71
2023/07/06 03:58:10;;;;;;;11.48;2.35;;;14.60;99.90;;;;;;5030734;28;20205;-83
2023/07/06 04:00:36;;;;;;;8.15;2.08;;;14.60;99.90;;;;;;5021316;28;20174;-85
2023/07/06 04:03:09;;;;;;;6.30;1.70;;;14.70;99.90;;;;;;5032670;28;20815;-84
2023/07/06 04:05:39;;;;;;;7.93;2.20;;;14.60;99.90;;;;;;5032170;28;20170;-84
2023/07/06 04:08:10;;;;;;;15.38;2.95;;;14.50;99.90;;;;;;5031194;28;20185;-86
2023/07/06 04:10:38;;;;;;;7.15;1.95;;;14.50;99.90;;;;;;5031623;28;20291;-86
2023/07/06 04:13:04;;;;;;;8.77;2.05;;;14.30;99.90;;;;;;5031035;28;20416;-84
2023/07/06 04:15:30;;;;;;;7.55;2.33;;;14.30;99.90;;;;;;5031192;28;20184;-81
2023/07/06 04:17:56;;;;;;;8.05;2.05;;;14.20;99.90;;;;;;5031094;28;20158;-84
2023/07/06 04:20:25;;;;;;;6.17;2.03;;;14.10;99.90;;;;;;5030115;28;20185;-80
2023/07/06 04:22:55;;;;;;;9.20;2.30;;;14.00;99.90;;;;;;5030689;28;20655;-77
2023/07/06 04:25:29;;;;;;;10.60;2.20;;;13.90;99.90;;;;;;5030655;28;20252;-75
2023/07/06 04:27:56;;;;;;;8.33;2.37;;;13.80;99.90;;;;;;5030965;28;20178;-76
2023/07/06 04:30:23;;;;;;;15.67;2.37;;;13.70;99.90;;;;;;5030512;28;20218;-76
2023/07/06 04:32:49;;;;;;;8.50;2.07;;;13.70;99.90;;;;;;5029986;28;20236;-76
2023/07/06 04:35:17;;;;;;;5.73;2.20;;;13.80;99.90;;;;;;5030031;28;20185;-77
2023/07/06 04:37:46;;;;;;;5.43;1.90;;;13.70;99.90;;;;;;5029929;28;20300;-75
2023/07/06 04:40:13;;;;;;;9.48;2.42;;;13.80;99.90;;;;;;5030689;28;20176;-76
2023/07/06 04:42:42;;;;;;;7.70;1.80;;;14.00;99.90;;;;;;5030215;28;20170;-76
2023/07/06 04:45:11;;;;;;;5.87;1.87;;;13.90;99.90;;;;;;5030537;28;20162;-76
2023/07/06 04:47:39;;;;;;;5.17;1.87;;;13.80;99.90;;;;;;5030152;28;20173;-76
2023/07/06 04:50:09;;;;;;;5.78;1.70;;;13.90;99.90;;;;;;5030858;28;20272;-79
2023/07/06 04:52:37;;;;;;;7.38;2.38;;;14.10;99.90;;;;;;5031411;28;20196;-80
2023/07/06 04:55:05;;;;;;;7.72;2.45;;;14.10;99.90;;;;;;5032341;28;20189;-80
2023/07/06 04:57:31;;;;;;;10.18;2.40;;;13.80;99.90;;;;;;5035655;28;20174;-80
2023/07/06 04:59:57;;;;;;;5.90;2.30;;;14.10;99.90;;;;;;5034664;28;20178;-80
2023/07/06 05:02:22;;;;;;;7.53;2.03;;;14.00;99.90;;;;;;5035152;28;20166;-81
2023/07/06 05:04:49;;;;;;;11.35;2.20;;;14.10;99.90;;;;;;5034979;28;20177;-81
2023/07/06 05:07:15;;;;;;;10.02;2.47;;;13.80;99.90;;;;;;5034501;28;20197;-80
2023/07/06 05:09:41;;;;;;;5.80;2.40;;;14.00;99.90;;;;;;5034590;28;20209;-81
2023/07/06 05:12:09;;;;;;;5.53;2.15;;;13.90;99.90;;;;;;5034225;28;20294;-81
2023/07/06 05:14:35;;;;;;;8.43;2.65;;;14.00;99.90;;;;;;5034205;28;20181;-79
2023/07/06 05:17:01;;;;;;;8.75;2.33;;;14.10;99.90;;;;;;5034617;28;20178;-82
2023/07/06 05:19:27;;;;;;;10.77;2.80;;;14.30;99.90;;;;;;5034523;28;20182;-77
2023/07/06 05:21:56;;;;;;;9.85;2.40;;;14.30;99.90;;;;;;5033997;28;20177;-79
2023/07/06 05:24:24;;;;;;;5.97;2.17;;;14.20;99.90;;;;;;5034154;28;20265;-78
2023/07/06 05:26:50;;;;;;;7.20;2.47;;;14.30;99.90;;;;;;5034158;28;20236;-77
2023/07/06 05:29:15;;;;;;;7.07;2.22;;;14.20;99.90;;;;;;5033938;28;20615;-78
2023/07/06 05:31:44;;;;;;;7.53;1.90;;;14.20;99.90;;;;;;5033970;28;20181;-78
2023/07/06 05:34:09;;;;;;;6.30;1.98;;;14.20;99.90;;;;;;5033987;28;20308;-79
2023/07/06 05:36:36;;;;;;;6.07;2.00;;;14.10;99.90;;;;;;5033618;28;20567;-78
2023/07/06 05:39:03;;;;;;;7.80;2.03;;;14.20;99.90;;;;;;5033629;28;20174;-74
2023/07/06 05:41:29;;;;;;;5.50;1.75;;;14.30;99.90;;;;;;5065539;28;20189;-74
2023/07/06 05:43:54;;;;;;;6.53;1.83;;;14.40;99.90;;;;;;5033604;28;20174;-74
2023/07/06 05:46:20;;;;;;;6.25;2.17;;;;;;;;;;5033387;28;20185;-74
2023/07/06 05:48:46;;;;;;;4.70;1.85;;;14.50;99.90;;;;;;5033223;28;20201;-74
2023/07/06 05:51:11;;;;;;;6.47;2.03;;;14.60;99.90;;;;;;5033601;28;20257;-74
2023/07/06 05:53:37;;;;;;;8.07;1.83;;;14.70;99.90;;;;;;5033249;28;20666;-75
2023/07/06 05:56:03;;;;;;;4.85;1.58;;;14.70;99.90;;;;;;5033197;28;20170;-77
2023/07/06 05:58:28;;;;;;;7.05;2.00;;;14.80;99.90;;;;;;5033321;28;20166;-76
2023/07/06 06:00:56;;;;;;;6.45;2.30;;;14.90;99.90;;;;;;5033087;28;20178;-76
2023/07/06 06:03:22;;;;;;;6.95;1.77;;;15.00;99.90;;;;;;5033011;28;20178;-77
2023/07/06 06:05:52;;;;;;;5.00;1.92;;;15.00;99.90;;;;;;5033251;28;20249;-73
2023/07/06 06:08:18;;;;;;;4.80;1.90;;;15.10;99.90;;;;;;5032071;28;20213;-73
2023/07/06 06:10:44;;;;;;;6.90;1.92;;;;;;;;;;5032698;28;20241;-73
2023/07/06 06:13:10;;;;;;;8.15;1.63;;;15.20;99.90;;;;;;5032227;28;20687;-73
2023/07/06 06:15:36;;;;;;;11.40;2.10;;;15.30;99.90;;;;;;5032932;28;20206;-73
2023/07/06 06:18:03;;;;;;;5.18;1.98;;;15.40;99.90;;;;;;5032809;28;20174;-73
2023/07/06 06:20:30;;;;;;;6.38;1.75;;;15.30;99.90;;;;;;5032063;28;20640;-74
2023/07/06 06:22:56;;;;;;;10.30;2.08;;;15.40;99.90;;;;;;5032025;28;20182;-71
2023/07/06 06:25:22;;;;;;;5.95;1.70;;;15.50;99.90;;;;;;5032083;28;20180;-71
2023/07/06 06:27:47;;;;;;;8.23;2.10;;;15.60;99.90;;;;;;5032281;28;20189;-71
2023/07/06 06:30:15;;;;;;;7.97;1.98;;;15.60;99.90;;;;;;5032665;28;20206;-71
2023/07/06 06:32:41;;;;;;;8.07;1.90;;;15.60;99.90;;;;;;5019197;28;20645;-73
2023/07/06 06:35:33;;;;;;;7.13;2.25;;;15.70;99.90;;;;;;5032685;28;20260;-74
2023/07/06 06:38:03;;;;;;;7.78;2.08;;;15.70;99.90;;;;;;5021387;28;20279;-77
2023/07/06 06:40:30;;;;;;;10.60;2.50;;;15.70;99.90;;;;;;5012358;28;20198;-77
2023/07/06 06:42:57;;;;;;;5.60;1.92;;;15.80;99.90;;;;;;5031088;28;20185;-77
2023/07/06 06:45:23;;;;;;;8.80;2.05;;;15.80;99.90;;;;;;5032293;28;20192;-75
2023/07/06 06:47:50;;;;;;;5.40;1.83;;;15.90;99.90;;;;;;5031294;28;20676;-74
2023/07/06 06:50:17;;;;;;;9.30;2.22;;;15.80;99.90;;;;;;5031291;28;20224;-73
2023/07/06 06:52:43;;;;;;;8.52;2.17;;;15.80;99.90;;;;;;5031197;28;20282;-74
2023/07/06 06:55:10;;;;;;;7.25;2.10;;;15.90;99.90;;;;;;5030629;28;20174;-73
2023/07/06 06:57:36;;;;;;;10.20;1.95;;;16.00;99.90;;;;;;5031576;28;20260;-74
2023/07/06 07:00:06;;;;;;;11.13;2.30;;;15.90;99.90;;;;;;5032115;28;20178;-73
2023/07/06 07:02:32;;;;;;;7.40;2.00;;;15.90;99.90;;;;;;5030751;28;20189;-75
2023/07/06 07:05:00;;;;;;;4.80;1.75;;;16.20;99.90;;;;;;5030957;28;20698;-74
2023/07/06 07:07:27;;;;;;;11.00;1.98;;;16.10;99.90;;;;;;5030655;28;20178;-72
2023/07/06 07:09:53;;;;;;;8.40;1.90;;;16.20;99.90;;;;;;5030269;28;20209;-74
2023/07/06 07:12:19;;;;;;;8.57;1.95;;;;;;;;;;5031563;28;20244;-79
2023/07/06 07:14:45;;;;;;;8.15;1.73;;;;;;;;;;5033937;28;20659;-80
2023/07/06 07:17:13;;;;;;;4.78;1.73;;;16.60;99.90;;;;;;5031553;28;20174;-78
2023/07/06 07:19:39;;;;;;;5.88;2.05;;;16.50;99.90;;;;;;5032318;28;20178;-82
2023/07/06 07:22:06;;;;;;;5.68;1.55;;;16.00;99.90;;;;;;5032031;28;20224;-83
2023/07/06 07:24:36;;;;;;;5.90;1.95;;;16.50;99.90;;;;;;5033126;28;20675;-80
2023/07/06 07:27:02;;;;;;;4.85;1.80;;;;;;;;;;5033810;28;20184;-81
2023/07/06 07:29:32;;;;;;;12.30;2.35;;;;;;;;;;5034088;28;20201;-81
2023/07/06 07:31:58;;;;;;;7.90;2.10;;;;;;;;;;5032236;28;20182;-79
2023/07/06 07:34:27;;;;;;;7.20;2.35;;;16.50;99.90;;;;;;5030890;28;20266;-75
2023/07/06 07:36:53;;;;;;;7.95;2.13;;;;;;;;;;5031372;28;20185;-69
2023/07/06 07:39:19;;;;;;;12.88;2.17;;;;;;;;;;5031032;28;20259;-67
2023/07/06 07:41:45;;;;;;;5.28;1.83;;;;;;;;;;5031383;28;20193;-70
2023/07/06 07:44:12;;;;;;;6.82;1.98;;;;;;;;;;5030821;28;20228;-68
2023/07/06 07:46:38;;;;;;;10.40;2.15;;;;;;;;;;5030556;28;20178;-69
2023/07/06 07:49:04;;;;;;;6.53;1.75;;;;;;;;;;5030480;28;20208;-70
2023/07/06 07:51:31;;;;;;;8.25;2.03;;;16.60;99.90;;;;;;5031167;28;20192;-70
2023/07/06 07:53:57;;;;;;;4.03;1.52;;;;;;;;;;5030006;28;20181;-69
2023/07/06 07:56:24;;;;;;;4.72;1.55;;;17.00;99.90;;;;;;5030398;28;20246;-72
2023/07/06 07:58:51;;;;;;;3.50;1.40;;;;;;;;;;5031019;28;20182;-69
2023/07/06 08:01:23;;;;;;;6.72;2.00;;;17.00;99.90;;;;;;5030544;28;20247;-68
2023/07/06 08:03:49;;;;;;;8.98;2.33;;;;;;;;;;5030878;28;20220;-69
2023/07/06 08:06:18;;;;;;;5.78;1.50;;;17.10;99.90;;;;;;5030633;28;20174;-71
2023/07/06 08:08:44;;;;;;;4.60;1.83;;;17.00;99.90;;;;;;5030553;28;20669;-69
2023/07/06 08:11:16;;;;;;;7.85;2.00;;;17.40;99.90;;;;;;5030414;28;20236;-68
2023/07/06 08:13:45;;;;;;;3.45;1.48;;;17.40;99.90;;;;;;5030490;28;20629;-70
2023/07/06 08:16:12;;;;;;;9.45;2.15;;;;;;;;;;5030516;28;20186;-69
2023/07/06 08:18:41;;;;;;;5.03;1.90;;;17.40;1.00;;;;;;5029343;28;20177;-70
2023/07/06 08:21:07;;;;;;;7.50;2.20;;;17.70;1.00;;;;;;5030170;28;20636;-71
2023/07/06 08:23:34;;;;;;;4.22;1.42;;;17.80;11.80;;;;;;5030883;28;20199;-70
2023/07/06 08:26:04;;;;;;;5.40;1.77;;;;;;;;;;5030317;28;20186;-70
2023/07/06 08:28:31;;;;;;;6.30;1.80;;;;;;;;;;5029991;28;20189;-72
2023/07/06 08:31:03;;;;;;;6.32;1.63;;;18.00;99.90;;;;;;5032189;28;20648;-74
2023/07/06 08:33:35;;;;;;;4.97;2.00;;;18.30;99.90;;;;;;5033947;28;20185;-84
2023/07/06 08:36:03;;;;;;;5.13;2.13;;;18.30;1.00;;;;;;5035430;28;20255;-72
2023/07/06 08:38:31;;;;;;;5.47;2.03;;;;;;;;;;5034606;28;20174;-72
2023/07/06 08:40:57;;;;;;;6.53;1.83;;;;;;;;;;5033733;28;20176;-73
2023/07/06 08:43:25;;;;;;;7.95;1.98;;;;;;;;;;5034240;28;20177;-71
2023/07/06 08:45:56;;;;;;;6.38;2.10;;;18.40;1.00;;;;;;5037670;28;20173;-72
2023/07/06 08:48:27;;;;;;;7.55;1.65;;;18.20;17.80;;;;;;5033229;28;20186;-70
2023/07/06 08:50:57;;;;;;;10.25;2.05;;;18.30;1.00;;;;;;5033907;28;20229;-70
2023/07/06 08:53:28;;;;;;;3.90;1.73;;;18.30;99.90;;;;;;5033498;28;20261;-70
2023/07/06 08:55:56;;;;;;;5.53;2.08;;;18.00;99.90;;;;;;5033827;28;20185;-70
2023/07/06 08:58:26;;;;;;;7.38;2.08;;;18.20;1.00;;;;;;5034083;28;20220;-68
2023/07/06 09:01:14;;;;;;;9.77;2.33;;;18.50;1.00;;;;;;5033627;28;20543;-68
2023/07/06 09:03:44;;;;;;;4.45;2.10;;;18.80;1.00;;;;;;5047692;28;20178;-68
2023/07/06 09:06:18;;;;;;;7.05;1.85;;;18.60;99.90;;;;;;5033885;28;20277;-69
2023/07/06 09:08:45;;;;;;;4.68;1.90;;;18.60;30.00;;;;;;5033266;28;20574;-68
2023/07/06 09:11:15;;;;;;;4.20;2.10;;;18.90;1.00;;;;;;5033510;28;20241;-69
2023/07/06 09:13:50;;;;;;;9.70;2.20;;;18.90;1.00;;;;;;5033098;28;20170;-69
2023/07/06 09:16:19;;;;;;;3.90;1.70;;;19.00;1.00;;;;;;5033097;28;20188;-68
2023/07/06 09:18:49;;;;;;;5.90;2.53;;;19.20;1.00;;;;;;5033278;28;20173;-69
2023/07/06 09:21:17;;;;;;;13.73;2.50;;;19.20;99.90;;;;;;5030875;28;20182;-68
2023/07/06 09:23:47;;;;;;;9.60;2.75;;;19.20;99.90;;;;;;5024123;28;20166;-70
2023/07/06 09:26:33;;;;;;;5.07;1.90;;;19.50;1.00;;;;;;5033800;28;20177;-69
2023/07/06 09:29:25;;;;;;;3.63;1.83;;;19.50;99.90;;;;;;5012853;28;20277;-70
2023/07/06 09:32:12;;;;;;;8.52;2.10;;;19.80;1.00;;;;;;5021550;28;20200;-70
2023/07/06 09:34:43;;;;;;;7.85;2.28;;;20.10;99.90;;;;;;5032663;28;20181;-70
2023/07/06 09:37:13;;;;;;;5.32;2.00;;;19.90;1.00;;;;;;5033709;28;20698;-70
2023/07/06 09:39:39;;;;;;;8.13;2.20;;;20.10;1.00;;;;;;5048605;28;20292;-68
2023/07/06 09:42:09;;;;;;;7.25;2.20;;;20.20;99.90;;;;;;5033153;28;20173;-69
2023/07/06 09:44:35;;;;;;;5.18;1.38;;;20.20;99.90;;;;;;5031454;28;20170;-70
2023/07/06 09:47:03;;;;;;;3.90;1.52;;;19.60;1.00;;;;;;5031244;28;20188;-71
2023/07/06 09:49:40;;;;;;;4.50;1.50;;;19.40;99.90;;;;;;5031649;28;20465;-70
2023/07/06 09:52:11;;;;;;;5.60;2.00;;;19.20;1.00;;;;;;5031323;28;20644;-70
2023/07/06 09:55:12;;;;;;;6.47;2.00;;;19.10;99.90;;;;;;5030051;28;20174;-71
2023/07/06 09:57:40;;;;;;;5.68;1.73;;;;;;;;;;5027454;28;20188;-70
2023/07/06 10:00:15;;;;;;;4.80;1.77;;;;;;;;;;5032253;28;20269;-70
2023/07/06 10:02:40;;;;;;;7.00;1.90;;;;;;;;;;5032574;28;20544;-70
2023/07/06 10:05:35;;;;;;;11.77;2.72;;;18.80;53.60;;;;;;5032353;28;20174;-71
2023/07/06 10:08:19;;;;;;;7.50;2.30;;;18.90;99.90;;;;;;5032067;28;20180;-70
2023/07/06 10:11:09;;;;;;;6.63;1.55;;;18.90;99.90;;;;;;5029972;28;20659;-71
2023/07/06 10:13:35;;;;;;;7.20;1.75;;;;;;;;;;5021201;28;20554;-71
2023/07/06 10:16:38;;;;;;;11.43;2.22;;;19.40;99.90;;;;;;5032250;28;20174;-72
2023/07/06 10:19:46;;;;;;;9.75;2.30;;;19.30;1.00;;;;;;5028120;28;20174;-70
2023/07/06 10:22:37;;;;;;;4.95;1.85;;;19.60;99.90;;;;;;5024646;28;20184;-70
2023/07/06 10:25:25;;;;;;;4.20;1.70;;;19.70;1.00;;;;;;5054544;28;20512;-70
2023/07/06 10:28:04;;;;;;;5.10;2.13;;;19.00;1.00;;;;;;5030469;28;20174;-70
2023/07/06 10:30:35;;;;;;;6.25;1.77;;;19.30;1.00;;;;;;5030477;28;20205;-70
2023/07/06 10:33:06;;;;;;;3.17;1.40;;;19.50;99.90;;;;;;5028803;28;20231;-70
2023/07/06 10:35:45;;;;;;;3.80;1.65;;;19.50;99.90;;;;;;5030838;28;20273;-70
2023/07/06 10:38:11;;;;;;;5.53;1.67;;;21.40;61.70;;;;;;5027485;28;20174;-71
2023/07/06 10:40:37;;;;;;;5.68;1.98;;;19.80;99.90;;;;;;5031955;28;20711;-71
2023/07/06 10:43:15;;;;;;;3.40;1.42;;;20.20;1.00;;;;;;5030142;28;20170;-72
2023/07/06 10:45:52;;;;;;;4.03;1.60;;;19.70;1.00;;;;;;5045398;28;20657;-71
2023/07/06 10:48:21;;;;;;;4.45;1.38;;;19.70;1.00;;;;;;5028377;28;20170;-71
2023/07/06 10:51:09;;;;;;;3.42;1.65;;;20.10;99.90;;;;;;5031657;28;20629;-69
2023/07/06 10:53:51;;;;;;;3.13;1.77;;;20.10;99.90;;;;;;5028201;28;20256;-71
2023/07/06 10:56:20;;;;;;;3.67;1.50;;;23.30;1.00;;;;;;5017569;28;20273;-70
2023/07/06 10:58:48;;;;;;;6.90;1.98;;;20.80;1.00;;;;;;5031940;28;20659;-70
2023/07/06 11:01:17;;;;;;;4.75;1.70;;;20.70;99.90;;;;;;5030390;28;20174;-70
2023/07/06 11:03:43;;;;;;;7.25;1.92;;;20.80;1.00;;;;;;5031539;28;20170;-70
2023/07/06 11:06:43;;;;;;;6.03;2.13;;;21.10;99.90;;;;;;5020745;28;20227;-70
2023/07/06 11:09:09;;;;;;;4.25;1.45;;;21.20;99.90;;;;;;5031531;28;20208;-68
2023/07/06 11:11:38;;;;;;;6.60;1.90;;;;;;;;;;5030713;28;20225;-71
2023/07/06 11:14:31;;;;;;;1.58;1.13;;;21.60;99.90;;;;;;5030872;28;20190;-71
2023/07/06 11:17:13;;;;;;;3.63;1.48;;;21.40;1.00;;;;;;5031045;28;20166;-71
2023/07/06 11:19:44;;;;;;;3.05;1.70;;;21.60;1.00;;;;;;5031213;28;20178;-70
2023/07/06 11:22:17;;;;;;;2.83;2.00;;;21.90;1.00;;;;;;5031027;28;20174;-70
2023/07/06 11:24:48;;;;;;;3.78;1.42;;;22.20;1.00;;;;;;5031867;28;20180;-70
2023/07/06 11:27:22;;;;;;;2.50;1.60;;;21.80;1.00;;;;;;5031062;28;20249;-71
2023/07/06 11:29:48;;;;;;;4.97;1.90;;;23.70;1.00;;;;;;5031307;28;20734;-71
2023/07/06 11:32:21;;;;;;;4.07;1.90;;;21.20;1.00;;;;;;5030814;28;20208;-70
2023/07/06 11:35:02;;;;;;;6.68;1.52;;;20.90;1.00;;;;;;5030439;28;20184;-68
2023/07/06 11:37:49;;;;;;;4.07;1.65;;;21.00;99.90;;;;;;5031080;28;20178;-73
2023/07/06 11:40:29;;;;;;;6.00;2.45;;;20.80;1.00;;;;;;5031274;28;20564;-72
2023/07/06 11:43:26;;;;;;;5.50;1.83;;;20.90;1.00;;;;;;5030993;28;20205;-71
2023/07/06 11:46:18;;;;;;;5.50;2.25;;;21.10;1.00;;;;;;5030838;28;20189;-71
2023/07/06 11:49:11;;;;;;;5.60;2.00;;;20.70;1.00;;;;;;5005834;28;20190;-72
2023/07/06 11:51:37;;;;;;;4.72;1.27;;;20.60;1.00;;;;;;5029701;28;20213;-72
2023/07/06 11:54:05;;;;;;;4.10;2.08;;;20.60;1.00;;;;;;5031114;28;20789;-71
2023/07/06 11:56:35;;;;;;;4.22;2.00;;;20.70;1.00;;;;;;5030943;28;20649;-70
2023/07/06 11:59:04;;;;;;;5.95;2.00;;;21.10;1.00;;;;;;5030963;28;20186;-71
2023/07/06 12:04:10;;;;;;;2.92;1.73;;;21.30;1.00;;;;;;5031129;28;20186;-70
2023/07/06 12:06:35;;;;;;;8.70;2.30;;;21.90;1.00;;;;;;5031186;28;20185;-69
2023/07/06 12:09:03;;;;;;;3.63;1.70;;;21.00;1.00;;;;;;5030730;28;20584;-70
2023/07/06 12:11:30;;;;;;;5.50;2.25;;;;;;;;;;5024285;28;20218;-70
2023/07/06 12:13:58;;;;;;;6.10;2.08;;;20.20;1.00;;;;;;5023144;28;20184;-70
2023/07/06 12:16:27;;;;;;;9.25;2.38;;;21.00;1.00;;;;;;5029842;28;20726;-70
2023/07/06 12:19:05;;;;;;;4.32;2.05;;;20.40;1.00;;;;;;5010518;28;20240;-70
2023/07/06 12:22:02;;;;;;;4.32;2.10;;;20.70;99.90;;;;;;5010584;28;20182;-70
2023/07/06 12:24:29;;;;;;;3.63;1.95;;;20.40;99.90;;;;;;4976796;28;20182;-71
2023/07/06 12:27:01;;;;;;;3.90;1.98;;;20.90;1.00;;;;;;5010785;28;20192;-71
2023/07/06 12:29:31;;;;;;;6.35;1.63;;;21.20;1.00;;;;;;5017690;28;20222;-71
2023/07/06 12:32:20;;;;;;;4.20;1.70;;;20.90;1.00;;;;;;5030625;28;20185;-70
2023/07/06 12:34:52;;;;;;;4.28;2.10;;;20.90;1.00;;;;;;5023059;28;20260;-70
2023/07/06 12:37:21;;;;;;;6.70;2.22;;;21.30;99.90;;;;;;5030391;28;20185;-71
2023/07/06 12:39:49;;;;;;;5.95;2.05;;;21.90;99.90;;;;;;5030439;28;20249;-70
2023/07/06 12:42:21;;;;;;;3.88;1.27;;;22.70;1.00;;;;;;5030696;28;20177;-72
2023/07/06 12:44:50;;;;;;;5.32;1.77;;;22.60;1.00;;;;;;5030578;28;20185;-72
2023/07/06 12:47:37;;;;;;;5.05;1.77;;;22.60;1.00;;;;;;5030718;28;20165;-71
2023/07/06 12:50:06;;;;;;;3.78;2.00;;;22.70;1.00;;;;;;5030631;28;20332;-70
2023/07/06 12:52:33;;;;;;;8.23;2.08;;;23.00;1.00;;;;;;5029470;28;20210;-69
2023/07/06 12:55:00;;;;;;;7.30;2.38;;;22.90;1.00;;;;;;5030594;28;20170;-71
2023/07/06 12:57:29;;;;;;;4.43;1.55;;;22.40;1.00;;;;;;5044796;28;20584;-69
2023/07/06 13:00:05;;;;;;;5.72;1.88;;;22.30;1.00;;;;;;5029660;28;20196;-72
2023/07/06 13:02:36;;;;;;;6.18;1.85;;;22.40;1.00;;;;;;5030352;28;20178;-70
2023/07/06 13:05:14;;;;;;;5.78;1.90;;;22.60;1.00;;;;;;5029592;28;20169;-70
2023/07/06 13:07:41;;;;;;;5.30;1.90;;;22.50;1.00;;;;;;5010818;28;20214;-75
2023/07/06 13:10:16;;;;;;;4.72;2.00;;;22.40;1.00;;;;;;5016490;28;20688;-71
2023/07/06 13:12:54;;;;;;;6.22;2.60;;;22.60;1.00;;;;;;5041226;28;20228;-73
2023/07/06 13:15:45;;;;;;;8.98;2.47;;;22.90;1.00;;;;;;5021470;28;20177;-73
2023/07/06 13:18:32;;;;;;;8.07;1.88;;;24.30;1.00;;;;;;5025648;28;20190;-73
2023/07/06 13:21:02;;;;;;;4.55;1.55;;;;;;;;;;5026953;28;20213;-76
2023/07/06 13:23:30;;;;;;;3.15;1.80;;;;;;;;;;5024117;28;20527;-75